createdAt,value
2023-02-13T00:04:01.905Z,2.83
2023-02-13T00:09:06.419Z,2.65
2023-02-13T00:14:09.876Z,2.63
2023-02-13T00:19:12.438Z,3.10
2023-02-13T00:24:15.711Z,2.00
2023-02-13T00:29:18.289Z,2.50
2023-02-13T00:34:20.946Z,1.83
2023-02-13T00:39:23.548Z,2.38
2023-02-13T00:44:26.084Z,2.42
2023-02-13T00:49:32.791Z,2.20
2023-02-13T00:54:38.312Z,1.10
2023-02-13T00:59:41.951Z,1.92
2023-02-13T01:04:44.640Z,2.00
2023-02-13T01:09:47.187Z,2.55
2023-02-13T01:14:49.878Z,2.25
2023-02-13T01:19:54.613Z,1.90
2023-02-13T01:24:58.322Z,1.52
2023-02-13T01:30:13.914Z,1.63
2023-02-13T01:35:17.202Z,1.95
2023-02-13T01:40:19.973Z,1.98
2023-02-13T01:45:27.406Z,2.22
2023-02-13T01:50:33.684Z,2.17
2023-02-13T02:00:43.287Z,2.13
2023-02-13T02:05:47.096Z,1.92
2023-02-13T02:10:49.941Z,1.65
2023-02-13T02:15:52.913Z,1.95
2023-02-13T02:21:24.615Z,2.08
2023-02-13T02:27:01.288Z,1.50
2023-02-13T02:32:19.606Z,1.98
2023-02-13T02:37:49.946Z,1.63
2023-02-13T02:42:58.593Z,1.75
2023-02-13T02:48:39.625Z,1.30
2023-02-13T02:54:28.233Z,1.67
2023-02-13T02:59:51.839Z,1.30
2023-02-13T03:05:16.793Z,1.90
2023-02-13T03:10:57.383Z,1.95
2023-02-13T03:16:20.005Z,1.73
2023-02-13T03:21:54.926Z,1.63
2023-02-13T03:27:44.432Z,0.63
2023-02-13T03:33:08.064Z,1.38
2023-02-13T03:38:20.767Z,1.73
2023-02-13T03:43:25.783Z,1.67
2023-02-13T03:48:56.567Z,2.00
2023-02-13T03:54:05.512Z,1.75
2023-02-13T03:59:17.480Z,0.80
2023-02-13T04:05:00.256Z,1.70
2023-02-13T04:10:10.951Z,1.30
2023-02-13T04:15:20.147Z,1.95
2023-02-13T04:20:22.972Z,1.15
2023-02-13T04:25:25.561Z,2.20
2023-02-13T04:30:29.183Z,1.50
2023-02-13T04:35:31.787Z,1.83
2023-02-13T04:40:34.348Z,2.20
2023-02-13T04:45:37.955Z,1.88
2023-02-13T04:50:40.711Z,2.25
2023-02-13T04:55:43.863Z,2.22
2023-02-13T05:00:46.512Z,1.83
2023-02-13T05:05:50.011Z,2.08
2023-02-13T05:10:52.615Z,2.03
2023-02-13T05:15:55.263Z,1.73
2023-02-13T05:21:16.890Z,1.30
2023-02-13T05:26:21.641Z,1.77
2023-02-13T05:31:24.618Z,0.88
2023-02-13T05:36:27.324Z,1.25
2023-02-13T05:41:32.324Z,1.17
2023-02-13T05:46:35.316Z,1.42
2023-02-13T05:51:38.172Z,1.35
2023-02-13T05:56:40.818Z,1.60
2023-02-13T06:01:43.471Z,1.75
2023-02-13T06:06:46.504Z,1.13
2023-02-13T06:11:49.164Z,1.10
2023-02-13T06:16:51.752Z,2.08
2023-02-13T06:21:54.366Z,1.95
2023-02-13T06:26:58.197Z,1.65
2023-02-13T06:32:00.823Z,1.63
2023-02-13T06:37:03.325Z,2.10
2023-02-13T06:42:05.822Z,1.75
2023-02-13T06:47:08.381Z,1.98
2023-02-13T06:52:11.059Z,2.70
2023-02-13T06:57:13.757Z,2.10
2023-02-13T07:02:16.353Z,1.65
2023-02-13T07:07:18.926Z,2.13
2023-02-13T07:12:21.866Z,2.30
2023-02-13T07:17:24.841Z,2.38
2023-02-13T07:22:27.559Z,2.25
2023-02-13T07:27:30.612Z,3.13
2023-02-13T07:32:33.210Z,3.13
2023-02-13T07:37:35.792Z,3.22
2023-02-13T07:42:38.384Z,3.25
2023-02-13T07:47:41.274Z,3.63
2023-02-13T07:52:43.884Z,3.53
2023-02-13T07:57:46.585Z,3.30
2023-02-13T08:02:49.613Z,3.38
2023-02-13T08:07:53.219Z,3.58
2023-02-13T08:12:56.005Z,4.07
2023-02-13T08:17:58.560Z,3.05
2023-02-13T08:23:06.552Z,3.30
2023-02-13T08:28:09.347Z,4.25
2023-02-13T08:33:12.017Z,3.92
2023-02-13T08:38:14.699Z,3.75
2023-02-13T08:48:21.877Z,4.10
2023-02-13T08:53:24.497Z,3.97
2023-02-13T08:58:27.099Z,3.70
2023-02-13T09:03:30.632Z,3.70
2023-02-13T09:08:35.765Z,4.32
2023-02-13T09:13:38.556Z,4.38
2023-02-13T09:18:41.234Z,4.53
2023-02-13T09:23:44.314Z,4.18
2023-02-13T09:28:46.906Z,3.58
2023-02-13T09:33:50.748Z,4.13
2023-02-13T09:38:55.402Z,4.57
2023-02-13T09:43:59.549Z,4.63
2023-02-13T09:49:17.597Z,4.55
2023-02-13T09:54:20.314Z,4.60
2023-02-13T09:59:35.027Z,5.35
2023-02-13T10:05:18.181Z,4.78
2023-02-13T10:11:05.856Z,5.05
2023-02-13T10:16:18.784Z,4.85
2023-02-13T10:21:31.229Z,4.35
2023-02-13T10:26:43.992Z,4.70
2023-02-13T10:31:50.158Z,5.18
2023-02-13T10:36:52.870Z,4.63
2023-02-13T10:42:23.007Z,5.10
2023-02-13T10:48:06.365Z,5.00
2023-02-13T10:53:27.169Z,4.50
2023-02-13T10:59:07.147Z,5.22
2023-02-13T11:04:17.333Z,5.72
2023-02-13T11:09:20.928Z,5.30
2023-02-13T11:14:26.664Z,3.97
2023-02-13T11:19:37.164Z,4.72
2023-02-13T11:24:53.362Z,5.55
2023-02-13T11:30:20.857Z,5.25
2023-02-13T11:35:33.161Z,5.15
2023-02-13T11:40:35.888Z,5.32
2023-02-13T11:45:38.554Z,4.93
2023-02-13T11:50:42.948Z,4.78
2023-02-13T11:55:48.199Z,4.70
2023-02-13T12:01:10.616Z,5.13
2023-02-13T12:06:15.816Z,5.22
2023-02-13T12:11:37.016Z,5.07
2023-02-13T12:17:07.486Z,6.47
2023-02-13T12:22:33.805Z,5.95
2023-02-13T12:27:52.405Z,5.45
2023-02-13T12:33:21.749Z,5.85
2023-02-13T12:38:35.504Z,5.57
2023-02-13T12:43:53.207Z,6.05
2023-02-13T12:49:14.408Z,5.50
2023-02-13T12:54:39.682Z,6.63
2023-02-13T12:59:51.738Z,6.18
2023-02-13T13:10:20.905Z,6.28
2023-02-13T13:15:29.454Z,6.65
2023-02-13T13:21:04.411Z,6.45
2023-02-13T13:26:32.334Z,7.20
2023-02-13T13:31:37.238Z,6.55
2023-02-13T13:36:40.163Z,6.88
2023-02-13T13:41:56.941Z,6.05
2023-02-13T13:47:12.690Z,5.75
2023-02-13T13:52:40.098Z,6.10
2023-02-13T13:58:00.873Z,6.03
2023-02-13T14:03:22.791Z,5.75
2023-02-13T14:08:40.363Z,6.55
2023-02-13T14:13:43.204Z,6.68
2023-02-13T14:18:48.533Z,5.45
2023-02-13T14:23:53.691Z,5.70
2023-02-13T14:28:58.487Z,4.72
2023-02-13T14:34:03.623Z,5.03
2023-02-13T14:39:42.319Z,5.88
2023-02-13T14:44:51.341Z,4.90
2023-02-13T14:49:55.848Z,4.75
2023-02-13T14:55:21.820Z,5.22
2023-02-13T15:01:11.748Z,5.28
2023-02-13T15:06:21.426Z,3.80
2023-02-13T15:11:39.483Z,6.32
2023-02-13T15:16:42.177Z,5.38
2023-02-13T15:21:54.317Z,5.60
2023-02-13T15:27:02.206Z,5.47
2023-02-13T15:32:18.534Z,5.90
2023-02-13T15:37:28.016Z,3.13
2023-02-13T15:42:31.010Z,5.20
2023-02-13T15:47:34.390Z,5.97
2023-02-13T15:52:39.487Z,5.55
2023-02-13T15:57:42.204Z,4.53
2023-02-13T16:02:52.986Z,5.93
2023-02-13T16:07:58.770Z,5.38
2023-02-13T16:18:20.111Z,4.70
2023-02-13T16:23:23.115Z,6.25
2023-02-13T16:28:29.405Z,5.95
2023-02-13T16:33:33.966Z,5.30
2023-02-13T16:38:51.604Z,6.00
2023-02-13T16:43:58.858Z,4.72
2023-02-13T16:49:07.123Z,5.65
2023-02-13T16:54:12.535Z,4.70
2023-02-13T16:59:23.988Z,4.72
2023-02-13T17:04:28.213Z,5.80
2023-02-13T17:09:30.802Z,6.25
2023-02-13T17:14:33.432Z,5.18
2023-02-13T17:19:36.029Z,4.72
2023-02-13T17:24:38.664Z,5.35
2023-02-13T17:29:41.310Z,5.50
2023-02-13T17:34:46.787Z,4.78
2023-02-13T17:39:50.148Z,6.25
2023-02-13T17:44:54.216Z,5.65
2023-02-13T17:50:05.119Z,4.95
2023-02-13T17:55:23.057Z,4.97
2023-02-13T18:00:31.290Z,5.63
2023-02-13T18:05:33.933Z,4.82
2023-02-13T18:10:37.697Z,5.70
2023-02-13T18:15:43.555Z,5.10
2023-02-13T18:25:50.953Z,6.20
2023-02-13T18:30:53.742Z,5.57
2023-02-13T18:36:03.350Z,4.07
2023-02-13T18:41:05.941Z,5.35
2023-02-13T18:46:08.568Z,5.25
2023-02-13T18:51:11.054Z,4.85
2023-02-13T18:56:13.896Z,4.80
2023-02-13T19:01:19.759Z,5.10
2023-02-13T19:06:24.908Z,5.13
2023-02-13T19:11:30.889Z,4.95
2023-02-13T19:16:35.261Z,4.25
2023-02-13T19:21:39.154Z,4.97
2023-02-13T19:26:43.450Z,5.63
2023-02-13T19:31:46.224Z,5.03
2023-02-13T19:36:48.937Z,5.75
2023-02-13T19:41:51.876Z,3.15
2023-02-13T19:46:54.326Z,5.72
2023-02-13T19:51:56.869Z,5.30
2023-02-13T19:57:04.935Z,5.35
2023-02-13T20:02:17.542Z,5.22
2023-02-13T20:07:21.360Z,6.55
2023-02-13T20:12:23.916Z,6.28
2023-02-13T20:17:26.469Z,4.18
2023-02-13T20:22:31.175Z,5.05
2023-02-13T20:32:39.805Z,5.35
2023-02-13T20:37:43.071Z,5.97
2023-02-13T20:42:45.608Z,7.13
2023-02-13T20:47:48.297Z,5.78
2023-02-13T20:52:50.903Z,6.88
2023-02-13T20:57:53.455Z,6.43
2023-02-13T21:02:56.039Z,5.93
2023-02-13T21:07:58.591Z,5.25
2023-02-13T21:13:01.128Z,7.13
2023-02-13T21:18:04.566Z,6.30
2023-02-13T21:23:07.175Z,4.60
2023-02-13T21:28:09.741Z,5.32
2023-02-13T21:33:12.353Z,5.25
2023-02-13T21:38:14.872Z,4.03
2023-02-13T21:43:17.641Z,5.13
2023-02-13T21:48:20.110Z,5.28
2023-02-13T21:53:22.622Z,4.63
2023-02-13T21:58:26.307Z,5.25
2023-02-13T22:03:29.050Z,3.95
2023-02-13T22:08:31.773Z,3.95
2023-02-13T22:13:35.466Z,6.40
2023-02-13T22:18:43.916Z,5.03
2023-02-13T22:23:47.894Z,5.07
2023-02-13T22:28:51.857Z,2.90
2023-02-13T22:34:03.461Z,3.78
2023-02-13T22:39:11.337Z,2.90
2023-02-13T22:44:13.989Z,3.33
2023-02-13T22:49:16.477Z,4.75
2023-02-13T22:54:19.027Z,2.95
2023-02-13T22:59:21.640Z,4.10
2023-02-13T23:04:24.273Z,2.50
2023-02-13T23:09:26.921Z,4.10
2023-02-13T23:14:29.512Z,2.03
2023-02-13T23:19:35.239Z,2.35
2023-02-13T23:24:37.862Z,3.67
2023-02-13T23:29:40.443Z,2.58
2023-02-13T23:34:42.950Z,1.88
2023-02-13T23:39:45.710Z,2.63
2023-02-13T23:44:48.300Z,2.67
2023-02-13T23:49:50.870Z,1.33
2023-02-13T23:54:53.499Z,1.95
2023-02-13T23:59:56.050Z,3.50
